createdAt,value
2023-10-29T00:00:51.337Z,97666.19
2023-10-29T00:01:53.202Z,97665.66
2023-10-29T00:02:56.119Z,97666.59
2023-10-29T00:03:58.122Z,97668.38
2023-10-29T00:05:01.258Z,97663.31
2023-10-29T00:06:03.383Z,97661.53
2023-10-29T00:07:06.438Z,97661.69
2023-10-29T00:08:10.291Z,97661.53
2023-10-29T00:09:13.119Z,97665.91
2023-10-29T00:10:15.729Z,97666.59
2023-10-29T00:11:18.867Z,97663.88
2023-10-29T00:12:20.720Z,97661.94
2023-10-29T00:13:26.219Z,97668.66
2023-10-29T00:14:28.074Z,97660.59
2023-10-29T00:15:31.733Z,97662.09
2023-10-29T00:16:33.593Z,97663.44
2023-10-29T00:17:36.654Z,97662.22
2023-10-29T00:18:38.529Z,97659.34
2023-10-29T00:19:40.546Z,97660.72
2023-10-29T00:20:43.546Z,97657.72
2023-10-29T00:21:45.385Z,97655.66
2023-10-29T00:22:48.196Z,97657.84
2023-10-29T00:23:51.447Z,97659.22
2023-10-29T00:24:54.236Z,97654.56
2023-10-29T00:25:56.081Z,97665.38
2023-10-29T00:26:58.963Z,97657.25
2023-10-29T00:28:01.180Z,97668.06
2023-10-29T00:29:03.270Z,97665.19
2023-10-29T00:30:07.501Z,97669.16
2023-10-29T00:31:09.346Z,97671.47
2023-10-29T00:32:12.170Z,97680.63
2023-10-29T00:33:14.018Z,97671.72
2023-10-29T00:34:16.835Z,97675.69
2023-10-29T00:35:18.634Z,97672.81
2023-10-29T00:36:21.818Z,97669.00
2023-10-29T00:37:23.654Z,97671.47
2023-10-29T00:38:26.622Z,97667.75
2023-10-29T00:39:41.856Z,97665.69
2023-10-29T00:40:44.655Z,97669.91
2023-10-29T00:41:46.581Z,97665.41
2023-10-29T00:42:49.465Z,97668.69
2023-10-29T00:43:52.282Z,97674.44
2023-10-29T00:44:54.163Z,97665.66
2023-10-29T00:45:57.153Z,97674.13
2023-10-29T00:46:59.353Z,97666.19
2023-10-29T00:48:02.396Z,97667.84
2023-10-29T00:49:04.625Z,97666.88
2023-10-29T00:50:08.254Z,97667.53
2023-10-29T00:51:10.497Z,97666.44
2023-10-29T00:52:14.658Z,97665.31
2023-10-29T00:53:16.500Z,97664.38
2023-10-29T00:54:19.432Z,97662.59
2023-10-29T00:55:22.673Z,97666.00
2023-10-29T00:56:25.998Z,97668.31
2023-10-29T00:57:27.908Z,97666.53
2023-10-29T00:58:30.774Z,97670.78
2023-10-29T00:59:32.743Z,97668.03
2023-10-29T01:00:35.575Z,97669.66
2023-10-29T01:01:37.428Z,97676.50
2023-10-29T01:02:40.322Z,97680.78
2023-10-29T01:03:43.266Z,97674.44
2023-10-29T01:04:46.583Z,97677.88
2023-10-29T01:05:49.587Z,97675.13
2023-10-29T01:06:52.575Z,97679.38
2023-10-29T01:07:54.690Z,97678.41
2023-10-29T01:08:57.707Z,97680.88
2023-10-29T01:10:00.197Z,97677.28
2023-10-29T01:11:08.184Z,97675.38
2023-10-29T01:12:15.731Z,97678.66
2023-10-29T01:13:18.547Z,97676.03
2023-10-29T01:14:20.438Z,97678.66
2023-10-29T01:15:23.233Z,97678.38
2023-10-29T01:16:25.143Z,97678.22
2023-10-29T01:17:28.047Z,97676.28
2023-10-29T01:18:29.976Z,97670.94
2023-10-29T01:19:32.812Z,97670.63
2023-10-29T01:20:34.698Z,97667.06
2023-10-29T01:21:37.590Z,97665.16
2023-10-29T01:22:39.420Z,97666.13
2023-10-29T01:23:42.305Z,97667.91
2023-10-29T01:24:44.205Z,97665.97
2023-10-29T01:25:47.019Z,97665.00
2023-10-29T01:26:50.304Z,97663.22
2023-10-29T01:27:53.972Z,97665.81
2023-10-29T01:28:56.415Z,97664.72
2023-10-29T01:29:59.576Z,97657.88
2023-10-29T01:31:01.494Z,97660.31
2023-10-29T01:32:04.592Z,97657.72
2023-10-29T01:33:06.543Z,97666.34
2023-10-29T01:34:10.612Z,97670.59
2023-10-29T01:35:13.229Z,97662.78
2023-10-29T01:36:16.022Z,97670.59
2023-10-29T01:37:17.885Z,97661.97
2023-10-29T01:38:20.668Z,97663.75
2023-10-29T01:39:22.595Z,97664.56
2023-10-29T01:40:25.445Z,97663.59
2023-10-29T01:41:27.272Z,97664.41
2023-10-29T01:42:31.421Z,97662.63
2023-10-29T01:43:33.249Z,97664.28
2023-10-29T01:44:36.159Z,97655.50
2023-10-29T01:45:38.716Z,97663.31
2023-10-29T01:46:41.615Z,97654.53
2023-10-29T01:47:43.516Z,97658.91
2023-10-29T01:48:46.376Z,97660.72
2023-10-29T01:49:49.105Z,97653.88
2023-10-29T01:50:52.555Z,97659.88
2023-10-29T01:51:54.553Z,97655.66
2023-10-29T01:52:57.025Z,97651.53
2023-10-29T01:53:59.837Z,97661.97
2023-10-29T01:55:01.731Z,97654.31
2023-10-29T01:56:08.512Z,97655.28
2023-10-29T01:57:10.356Z,97654.56
2023-10-29T01:58:14.794Z,97654.72
2023-10-29T01:59:16.960Z,97653.91
2023-10-29T02:00:20.464Z,97652.28
2023-10-29T02:01:22.379Z,97653.53
2023-10-29T02:02:25.198Z,97650.94
2023-10-29T02:03:27.423Z,97652.84
2023-10-29T02:04:31.426Z,97657.22
2023-10-29T02:05:33.516Z,97650.41
2023-10-29T02:06:40.054Z,97653.16
2023-10-29T02:07:41.890Z,97653.44
2023-10-29T02:08:44.744Z,97652.59
2023-10-29T02:09:46.596Z,97646.75
2023-10-29T02:10:50.394Z,97659.88
2023-10-29T02:11:52.423Z,97648.66
2023-10-29T02:12:55.402Z,97660.03
2023-10-29T02:13:58.636Z,97653.19
2023-10-29T02:15:01.657Z,97661.97
2023-10-29T02:16:04.793Z,97653.34
2023-10-29T02:17:07.770Z,97651.56
2023-10-29T02:18:09.725Z,97657.59
2023-10-29T02:19:12.581Z,97653.34
2023-10-29T02:20:14.623Z,97651.56
2023-10-29T02:21:17.492Z,97648.81
2023-10-29T02:22:20.751Z,97646.06
2023-10-29T02:23:23.971Z,97648.53
2023-10-29T02:24:25.823Z,97644.94
2023-10-29T02:25:28.607Z,97645.78
2023-10-29T02:26:30.557Z,97645.94
2023-10-29T02:27:33.385Z,97651.13
2023-10-29T02:29:57.532Z,97651.84
2023-10-29T02:30:59.499Z,97652.16
2023-10-29T02:32:02.343Z,97656.81
2023-10-29T02:33:04.274Z,97650.09
2023-10-29T02:34:07.293Z,97647.91
2023-10-29T02:35:09.792Z,97649.19
2023-10-29T02:36:12.701Z,97640.19
2023-10-29T02:37:14.736Z,97649.38
2023-10-29T02:38:19.454Z,97651.72
2023-10-29T02:39:21.338Z,97638.31
2023-10-29T02:40:24.152Z,97643.13
2023-10-29T02:41:26.015Z,97648.03
2023-10-29T02:42:28.866Z,97649.44
2023-10-29T02:43:30.784Z,97642.19
2023-10-29T02:44:33.787Z,97646.19
2023-10-29T02:45:35.837Z,97647.41
2023-10-29T02:46:38.728Z,97651.41
2023-10-29T02:47:40.765Z,97657.97
2023-10-29T02:48:43.946Z,97653.03
2023-10-29T02:49:45.829Z,97658.38
2023-10-29T02:50:48.655Z,97655.78
2023-10-29T02:51:50.525Z,97654.97
2023-10-29T02:52:54.060Z,97648.97
2023-10-29T02:53:57.237Z,97652.38
2023-10-29T02:55:00.087Z,97650.59
2023-10-29T02:56:01.948Z,97653.72
2023-10-29T02:57:05.349Z,97650.84
2023-10-29T02:58:07.868Z,97653.44
2023-10-29T02:59:11.226Z,97659.47
2023-10-29T03:00:14.005Z,97660.16
2023-10-29T03:01:17.398Z,97656.59
2023-10-29T03:02:19.529Z,97666.84
2023-10-29T03:03:22.838Z,97664.09
2023-10-29T03:04:24.868Z,97672.59
2023-10-29T03:05:27.840Z,97669.69
2023-10-29T03:06:31.257Z,97667.81
2023-10-29T03:07:34.075Z,97670.09
2023-10-29T03:08:36.825Z,97669.03
2023-10-29T03:09:42.287Z,97673.09
2023-10-29T03:10:44.150Z,97667.63
2023-10-29T03:11:46.068Z,97673.66
2023-10-29T03:12:48.876Z,97675.28
2023-10-29T03:13:50.715Z,97672.53
2023-10-29T03:14:52.617Z,97676.66
2023-10-29T03:15:56.128Z,97678.28
2023-10-29T03:16:58.994Z,97678.97
2023-10-29T03:18:01.897Z,97681.44
2023-10-29T03:19:04.360Z,97681.28
2023-10-29T03:20:08.268Z,97682.94
2023-10-29T03:21:10.486Z,97681.16
2023-10-29T03:22:13.315Z,97673.25
2023-10-29T03:23:16.745Z,97680.91
2023-10-29T03:24:19.644Z,97682.53
2023-10-29T03:25:22.882Z,97679.81
2023-10-29T03:26:26.137Z,97690.06
2023-10-29T03:27:28.032Z,97685.53
2023-10-29T03:28:31.504Z,97685.41
2023-10-29T03:29:33.433Z,97681.84
2023-10-29T03:30:35.281Z,97682.66
2023-10-29T03:31:38.421Z,97688.69
2023-10-29T03:32:40.451Z,97690.31
2023-10-29T03:33:43.549Z,97689.34
2023-10-29T03:34:45.426Z,97693.63
2023-10-29T03:35:48.270Z,97697.97
2023-10-29T03:36:50.181Z,97688.41
2023-10-29T03:37:52.962Z,97691.81
2023-10-29T03:38:54.830Z,97691.81
2023-10-29T03:39:57.806Z,97691.81
2023-10-29T03:41:00.978Z,97696.06
2023-10-29T03:42:05.015Z,97695.25
2023-10-29T03:43:06.847Z,97694.44
2023-10-29T03:44:09.814Z,97692.75
2023-10-29T03:45:11.921Z,97697.16
2023-10-29T03:46:14.909Z,97700.72
2023-10-29T03:47:16.853Z,97705.25
2023-10-29T03:48:19.825Z,97701.13
2023-10-29T03:49:21.750Z,97694.31
2023-10-29T03:50:24.912Z,97691.97
2023-10-29T03:51:29.394Z,97698.16
2023-10-29T03:52:33.145Z,97691.44
2023-10-29T03:53:34.980Z,97697.63
2023-10-29T03:54:37.844Z,97695.25
2023-10-29T03:55:39.779Z,97690.31
2023-10-29T03:56:43.964Z,97688.13
2023-10-29T03:57:45.784Z,97686.81
2023-10-29T03:58:47.694Z,97684.63
2023-10-29T03:59:50.513Z,97686.00
2023-10-29T04:00:52.400Z,97686.41
2023-10-29T04:01:55.255Z,97683.56
2023-10-29T04:02:57.443Z,97683.41
2023-10-29T04:04:00.426Z,97684.94
2023-10-29T04:05:09.405Z,97677.81
2023-10-29T04:06:13.648Z,97693.41
2023-10-29T04:07:15.460Z,97687.38
2023-10-29T04:08:18.456Z,97684.50
2023-10-29T04:09:20.307Z,97682.47
2023-10-29T04:10:23.104Z,97677.94
2023-10-29T04:11:24.992Z,97672.47
2023-10-29T04:12:29.178Z,97674.78
2023-10-29T04:13:31.027Z,97676.25
2023-10-29T04:14:33.894Z,97683.63
2023-10-29T04:15:35.762Z,97684.88
2023-10-29T04:16:38.606Z,97678.53
2023-10-29T04:17:40.528Z,97691.09
2023-10-29T04:18:43.423Z,97688.06
2023-10-29T04:19:45.226Z,97691.19
2023-10-29T04:20:48.056Z,97683.66
2023-10-29T04:21:49.967Z,97686.69
2023-10-29T04:22:52.748Z,97681.88
2023-10-29T04:23:54.729Z,97689.09
2023-10-29T04:24:57.549Z,97679.81
2023-10-29T04:25:59.814Z,97678.41
2023-10-29T04:27:02.731Z,97665.69
2023-10-29T04:28:05.966Z,97669.50
2023-10-29T04:29:08.790Z,97663.06
2023-10-29T04:30:11.504Z,97665.34
2023-10-29T04:31:14.329Z,97665.88
2023-10-29T04:32:16.188Z,97667.31
2023-10-29T04:33:19.162Z,97665.38
2023-10-29T04:34:21.024Z,97670.28
2023-10-29T04:35:23.810Z,97666.41
2023-10-29T04:36:26.994Z,97673.63
2023-10-29T04:37:28.854Z,97666.91
2023-10-29T04:38:32.510Z,97669.19
2023-10-29T04:39:34.454Z,97666.00
2023-10-29T04:40:37.400Z,97669.69
2023-10-29T04:41:39.737Z,97667.44
2023-10-29T04:42:42.614Z,97668.78
2023-10-29T04:43:54.862Z,97670.47
2023-10-29T04:44:57.701Z,97670.97
2023-10-29T04:45:59.551Z,97670.38
2023-10-29T04:47:03.759Z,97675.84
2023-10-29T04:48:06.142Z,97673.63
2023-10-29T04:49:09.032Z,97673.03
2023-10-29T04:50:10.862Z,97666.22
2023-10-29T04:51:13.660Z,97671.50
2023-10-29T04:52:15.548Z,97675.97
2023-10-29T04:53:18.424Z,97675.28
2023-10-29T04:54:20.246Z,97677.97
2023-10-29T04:55:23.109Z,97676.22
2023-10-29T04:56:24.913Z,97684.69
2023-10-29T04:57:27.729Z,97671.75
2023-10-29T04:58:29.725Z,97681.16
2023-10-29T04:59:34.179Z,97677.88
2023-10-29T05:00:35.999Z,97678.13
2023-10-29T05:01:39.660Z,97678.63
2023-10-29T05:02:41.964Z,97675.44
2023-10-29T05:03:45.039Z,97684.38
2023-10-29T05:04:48.659Z,97676.88
2023-10-29T05:05:51.920Z,97681.34
2023-10-29T05:06:54.059Z,97680.66
2023-10-29T05:07:56.875Z,97685.94
2023-10-29T05:08:59.285Z,97678.28
2023-10-29T05:10:02.150Z,97678.41
2023-10-29T05:11:04.162Z,97679.50
2023-10-29T05:12:08.297Z,97675.38
2023-10-29T05:13:10.212Z,97675.63
2023-10-29T05:14:13.111Z,97677.63
2023-10-29T05:15:16.446Z,97673.41
2023-10-29T05:16:21.331Z,97670.09
2023-10-29T05:17:23.339Z,97670.91
2023-10-29T05:18:26.216Z,97670.00
2023-10-29T05:19:28.115Z,97671.72
2023-10-29T05:20:31.166Z,97667.63
2023-10-29T05:21:33.055Z,97665.28
2023-10-29T05:22:35.832Z,97671.53
2023-10-29T05:23:39.632Z,97666.56
2023-10-29T05:24:41.515Z,97680.59
2023-10-29T05:25:45.456Z,97677.28
2023-10-29T05:26:47.442Z,97673.41
2023-10-29T05:27:53.884Z,97671.19
2023-10-29T05:28:55.729Z,97679.41
2023-10-29T05:30:00.279Z,97676.94
2023-10-29T05:31:03.998Z,97684.84
2023-10-29T05:32:08.387Z,97686.69
2023-10-29T05:33:10.344Z,97683.16
2023-10-29T05:34:13.475Z,97687.66
2023-10-29T05:35:15.496Z,97688.59
2023-10-29T05:36:18.312Z,97696.34
2023-10-29T05:37:20.131Z,97691.19
2023-10-29T05:38:22.916Z,97694.59
2023-10-29T05:39:24.777Z,97701.41
2023-10-29T05:40:27.624Z,97696.09
2023-10-29T05:41:29.467Z,97701.03
2023-10-29T05:42:32.645Z,97701.03
2023-10-29T05:43:35.595Z,97707.03
2023-10-29T05:44:38.384Z,97709.75
2023-10-29T05:45:40.300Z,97705.53
2023-10-29T05:46:44.433Z,97708.13
2023-10-29T05:47:46.319Z,97716.44
2023-10-29T05:48:49.181Z,97705.28
2023-10-29T05:49:51.025Z,97711.16
2023-10-29T05:50:53.956Z,97715.63
2023-10-29T05:51:55.807Z,97713.84
2023-10-29T05:52:58.609Z,97710.34
2023-10-29T05:54:00.413Z,97716.44
2023-10-29T05:55:03.205Z,97714.56
2023-10-29T05:56:06.764Z,97716.22
2023-10-29T05:57:08.706Z,97716.91
2023-10-29T05:58:12.077Z,97719.41
2023-10-29T05:59:14.359Z,97723.28
2023-10-29T06:00:18.560Z,97721.50
2023-10-29T06:01:20.484Z,97725.47
2023-10-29T06:02:24.638Z,97716.72
2023-10-29T06:03:26.583Z,97724.91
2023-10-29T06:04:29.595Z,97722.44
2023-10-29T06:05:31.511Z,97726.34
2023-10-29T06:06:34.393Z,97724.03
2023-10-29T06:07:38.214Z,97730.34
2023-10-29T06:08:41.059Z,97730.19
2023-10-29T06:09:42.903Z,97737.13
2023-10-29T06:10:46.089Z,97729.22
2023-10-29T06:11:47.994Z,97733.50
2023-10-29T06:12:50.804Z,97732.13
2023-10-29T06:13:54.295Z,97734.72
2023-10-29T06:14:57.321Z,97743.19
2023-10-29T06:15:59.159Z,97739.63
2023-10-29T06:17:15.529Z,97738.41
2023-10-29T06:18:25.505Z,97746.72
2023-10-29T06:19:28.793Z,97743.84
2023-10-29T06:20:30.690Z,97747.13
2023-10-29T06:21:34.774Z,97746.84
2023-10-29T06:22:36.663Z,97755.41
2023-10-29T06:23:39.491Z,97751.84
2023-10-29T06:24:41.324Z,97754.84
2023-10-29T06:25:44.108Z,97750.88
2023-10-29T06:26:46.077Z,97749.47
2023-10-29T06:27:48.932Z,97741.69
2023-10-29T06:28:50.837Z,97745.00
2023-10-29T06:29:53.800Z,97745.03
2023-10-29T06:30:55.760Z,97742.63
2023-10-29T06:31:58.599Z,97746.59
2023-10-29T06:33:01.218Z,97749.47
2023-10-29T06:34:05.785Z,97748.94
2023-10-29T06:35:08.140Z,97746.78
2023-10-29T06:36:10.005Z,97754.41
2023-10-29T06:37:13.303Z,97751.91
2023-10-29T06:38:15.395Z,97741.81
2023-10-29T06:39:18.417Z,97738.66
2023-10-29T06:40:21.009Z,97742.72
2023-10-29T06:41:30.057Z,97741.78
2023-10-29T06:42:31.964Z,97745.81
2023-10-29T06:43:35.491Z,97745.94
2023-10-29T06:44:38.338Z,97745.03
2023-10-29T06:45:40.916Z,97746.47
2023-10-29T06:46:43.774Z,97743.97
2023-10-29T06:47:45.710Z,97738.56
2023-10-29T06:48:48.668Z,97743.03
2023-10-29T06:49:52.038Z,97740.63
2023-10-29T06:50:54.973Z,97741.91
2023-10-29T06:51:56.923Z,97747.78
2023-10-29T06:52:59.730Z,97746.44
2023-10-29T06:54:01.903Z,97745.13
2023-10-29T06:55:05.501Z,97745.44
2023-10-29T06:56:07.766Z,97734.50
2023-10-29T06:57:10.607Z,97737.81
2023-10-29T06:58:12.499Z,97738.34
2023-10-29T06:59:15.379Z,97741.84
2023-10-29T07:00:17.567Z,97745.13
2023-10-29T07:01:20.407Z,97736.81
2023-10-29T07:02:22.329Z,97738.94
2023-10-29T07:03:25.280Z,97735.81
2023-10-29T07:04:27.667Z,97734.69
2023-10-29T07:05:30.978Z,97731.41
2023-10-29T07:06:33.857Z,97736.66
2023-10-29T07:07:36.114Z,97732.69
2023-10-29T07:08:39.316Z,97735.47
2023-10-29T07:09:41.209Z,97732.34
2023-10-29T07:10:45.459Z,97735.91
2023-10-29T07:11:47.327Z,97731.50
2023-10-29T07:12:50.138Z,97736.38
2023-10-29T07:13:53.685Z,97740.78
2023-10-29T07:14:57.548Z,97731.16
2023-10-29T07:16:00.790Z,97731.16
2023-10-29T07:17:03.761Z,97734.75
2023-10-29T07:18:05.833Z,97726.22
2023-10-29T07:19:08.666Z,97720.19
2023-10-29T07:20:12.161Z,97722.81
2023-10-29T07:21:16.789Z,97721.34
2023-10-29T07:22:19.084Z,97732.09
2023-10-29T07:23:23.318Z,97735.06
2023-10-29T07:24:25.110Z,97747.44
2023-10-29T07:25:27.918Z,97740.59
2023-10-29T07:26:29.758Z,97732.09
2023-10-29T07:27:32.570Z,97735.66
2023-10-29T07:28:36.079Z,97731.59
2023-10-29T07:29:39.085Z,97721.94
2023-10-29T07:30:41.106Z,97718.22
2023-10-29T07:31:44.001Z,97725.72
2023-10-29T07:32:46.012Z,97727.84
2023-10-29T07:33:49.220Z,97723.13
2023-10-29T07:34:51.048Z,97727.88
2023-10-29T07:35:53.878Z,97725.91
2023-10-29T07:36:57.268Z,97720.53
2023-10-29T07:38:00.103Z,97723.13
2023-10-29T07:39:02.026Z,97709.06
2023-10-29T07:40:05.705Z,97710.56
2023-10-29T07:41:07.553Z,97712.03
2023-10-29T07:42:10.412Z,97707.47
2023-10-29T07:43:12.252Z,97707.81
2023-10-29T07:44:15.021Z,97714.19
2023-10-29T07:45:17.595Z,97711.75
2023-10-29T07:46:21.507Z,97713.72
2023-10-29T07:47:23.337Z,97714.22
2023-10-29T07:48:26.287Z,97711.31
2023-10-29T07:49:28.220Z,97711.94
2023-10-29T07:50:31.004Z,97713.44
2023-10-29T07:51:33.073Z,97718.50
2023-10-29T07:52:46.646Z,97717.34
2023-10-29T07:53:48.681Z,97724.06
2023-10-29T07:54:50.610Z,97719.97
2023-10-29T07:55:53.368Z,97721.28
2023-10-29T07:56:55.260Z,97720.28
2023-10-29T07:57:58.174Z,97716.50
2023-10-29T07:59:00.028Z,97713.75
2023-10-29T08:00:04.489Z,97718.63
2023-10-29T08:01:15.227Z,97715.69
2023-10-29T08:02:18.182Z,97710.97
2023-10-29T08:03:20.114Z,97708.66
2023-10-29T08:04:23.137Z,97716.00
2023-10-29T08:05:25.013Z,97712.25
2023-10-29T08:06:27.809Z,97712.75
2023-10-29T08:07:29.742Z,97708.97
2023-10-29T08:08:33.950Z,97716.50
2023-10-29T08:09:35.789Z,97716.16
2023-10-29T08:10:38.973Z,97715.00
2023-10-29T08:11:40.824Z,97713.03
2023-10-29T08:12:43.666Z,97708.28
2023-10-29T08:13:45.779Z,97716.78
2023-10-29T08:14:48.765Z,97720.88
2023-10-29T08:15:50.716Z,97717.28
2023-10-29T08:16:53.565Z,97713.66
2023-10-29T08:17:55.581Z,97719.38
2023-10-29T08:18:58.905Z,97707.75
2023-10-29T08:20:00.766Z,97711.84
2023-10-29T08:21:02.748Z,97709.53
2023-10-29T08:22:05.598Z,97711.00
2023-10-29T08:23:07.777Z,97708.84
2023-10-29T08:24:12.074Z,97717.34
2023-10-29T08:25:13.938Z,97714.59
2023-10-29T08:26:17.406Z,97714.22
2023-10-29T08:27:19.293Z,97718.31
2023-10-29T08:28:22.178Z,97713.53
2023-10-29T08:29:24.079Z,97704.34
2023-10-29T08:30:27.102Z,97705.66
2023-10-29T08:31:28.975Z,97702.72
2023-10-29T08:32:34.331Z,97706.47
2023-10-29T08:33:36.479Z,97712.03
2023-10-29T08:34:39.898Z,97708.22
2023-10-29T08:35:44.601Z,97704.09
2023-10-29T08:36:47.428Z,97718.50
2023-10-29T08:37:49.731Z,97712.75
2023-10-29T08:38:52.676Z,97711.25
2023-10-29T08:39:58.466Z,97712.53
2023-10-29T08:41:01.380Z,97708.59
2023-10-29T08:42:03.883Z,97710.50
2023-10-29T08:43:06.926Z,97713.44
2023-10-29T08:44:08.857Z,97712.09
2023-10-29T08:45:16.225Z,97703.53
2023-10-29T08:46:22.126Z,97715.94
2023-10-29T08:47:25.457Z,97706.75
2023-10-29T08:48:27.439Z,97706.38
2023-10-29T08:49:30.720Z,97705.03
2023-10-29T08:50:32.540Z,97709.75
2023-10-29T08:51:35.418Z,97703.78
2023-10-29T08:52:37.244Z,97700.66
2023-10-29T08:53:40.126Z,97704.38
2023-10-29T08:54:42.195Z,97696.78
2023-10-29T08:55:46.957Z,97701.50
2023-10-29T08:56:50.301Z,97707.03
2023-10-29T08:57:53.511Z,97702.25
2023-10-29T08:58:55.330Z,97712.22
2023-10-29T08:59:58.174Z,97706.47
2023-10-29T09:01:00.058Z,97706.38
2023-10-29T09:02:02.847Z,97715.34
2023-10-29T09:03:04.839Z,97702.50
2023-10-29T09:04:10.240Z,97713.94
2023-10-29T09:05:12.998Z,97715.03
2023-10-29T09:06:15.867Z,97725.63
2023-10-29T09:07:18.250Z,97718.47
2023-10-29T09:08:21.165Z,97722.19
2023-10-29T09:09:23.044Z,97729.97
2023-10-29T09:10:25.872Z,97725.78
2023-10-29T09:11:29.038Z,97722.78
2023-10-29T09:12:31.902Z,97720.63
2023-10-29T09:13:33.775Z,97716.81
2023-10-29T09:14:36.684Z,97708.56
2023-10-29T09:15:38.661Z,97709.78
2023-10-29T09:16:41.527Z,97709.63
2023-10-29T09:17:43.483Z,97705.63
2023-10-29T09:18:46.335Z,97707.88
2023-10-29T09:19:48.225Z,97711.78
2023-10-29T09:20:51.918Z,97716.28
2023-10-29T09:21:53.888Z,97705.22
2023-10-29T09:22:56.714Z,97702.03
2023-10-29T09:23:58.584Z,97709.56
2023-10-29T09:25:01.437Z,97713.47
2023-10-29T09:26:03.665Z,97703.41
2023-10-29T09:27:07.526Z,97701.22
2023-10-29T09:28:12.542Z,97699.19
2023-10-29T09:29:14.381Z,97694.75
2023-10-29T09:30:17.412Z,97699.44
2023-10-29T09:31:19.352Z,97703.34
2023-10-29T09:32:21.507Z,97699.50
2023-10-29T09:33:24.683Z,97692.88
2023-10-29T09:34:26.692Z,97700.22
2023-10-29T09:35:29.671Z,97705.09
2023-10-29T09:36:31.791Z,97700.25
2023-10-29T09:37:35.871Z,97700.91
2023-10-29T09:38:37.854Z,97692.00
2023-10-29T09:39:40.655Z,97697.06
2023-10-29T09:40:42.671Z,97693.25
2023-10-29T09:41:54.795Z,97690.22
2023-10-29T09:43:04.683Z,97702.81
2023-10-29T09:44:08.835Z,97697.19
2023-10-29T09:45:11.651Z,97700.06
2023-10-29T09:46:15.245Z,97701.13
2023-10-29T09:47:18.588Z,97696.09
2023-10-29T09:48:21.588Z,97686.81
2023-10-29T09:49:23.525Z,97683.78
2023-10-29T09:50:26.798Z,97686.22
2023-10-29T09:51:29.952Z,97679.97
2023-10-29T09:52:34.809Z,97672.06
2023-10-29T09:53:37.149Z,97665.78
2023-10-29T09:54:40.447Z,97674.28
2023-10-29T09:55:42.574Z,97669.66
2023-10-29T09:56:45.483Z,97662.38
2023-10-29T09:57:56.529Z,97661.78
2023-10-29T09:59:00.677Z,97656.94
2023-10-29T10:00:05.421Z,97661.81
2023-10-29T10:01:16.365Z,97650.91
2023-10-29T10:02:18.483Z,97663.66
2023-10-29T10:03:20.534Z,97657.25
2023-10-29T10:04:23.535Z,97660.31
2023-10-29T10:05:27.173Z,97662.34
2023-10-29T10:06:30.067Z,97655.88
2023-10-29T10:07:32.627Z,97657.94
2023-10-29T10:08:35.485Z,97653.91
2023-10-29T10:09:51.434Z,97656.94
2023-10-29T10:10:54.592Z,97647.03
2023-10-29T10:12:06.243Z,97657.16
2023-10-29T10:13:09.929Z,97658.81
2023-10-29T10:14:26.986Z,97652.13
2023-10-29T10:15:29.813Z,97646.66
2023-10-29T10:16:31.704Z,97653.34
2023-10-29T10:17:34.643Z,97653.78
2023-10-29T10:18:48.745Z,97650.56
2023-10-29T10:20:08.322Z,97647.34
2023-10-29T10:21:10.319Z,97647.56
2023-10-29T10:22:13.153Z,97644.50
2023-10-29T10:23:15.371Z,97643.09
2023-10-29T10:24:18.246Z,97638.63
2023-10-29T10:25:21.417Z,97639.44
2023-10-29T10:26:31.584Z,97631.31
2023-10-29T10:27:48.532Z,97629.31
2023-10-29T10:28:54.807Z,97626.47
2023-10-29T10:29:59.043Z,97629.75
2023-10-29T10:31:14.817Z,97633.78
2023-10-29T10:32:24.863Z,97632.38
2023-10-29T10:33:26.864Z,97629.31
2023-10-29T10:34:28.737Z,97632.19
2023-10-29T10:35:40.315Z,97627.31
2023-10-29T10:36:43.297Z,97626.13
2023-10-29T10:37:54.300Z,97623.28
2023-10-29T10:38:56.834Z,97622.47
2023-10-29T10:39:59.719Z,97631.41
2023-10-29T10:41:01.594Z,97618.38
2023-10-29T10:42:05.534Z,97617.56
2023-10-29T10:43:08.238Z,97620.84
2023-10-29T10:44:11.669Z,97617.38
2023-10-29T10:45:16.937Z,97620.41
2023-10-29T10:46:18.923Z,97621.66
2023-10-29T10:47:21.795Z,97617.63
2023-10-29T10:48:23.791Z,97618.88
2023-10-29T10:49:27.342Z,97616.81
2023-10-29T10:50:29.237Z,97619.06
2023-10-29T10:51:32.701Z,97622.09
2023-10-29T10:52:35.640Z,97620.91
2023-10-29T10:53:39.600Z,97617.22
2023-10-29T10:54:44.897Z,97625.75
2023-10-29T10:56:02.293Z,97618.63
2023-10-29T10:57:08.079Z,97598.31
2023-10-29T10:58:13.774Z,97614.38
2023-10-29T10:59:16.912Z,97615.19
2023-10-29T11:00:21.535Z,97615.00
2023-10-29T11:01:25.239Z,97611.34
2023-10-29T11:02:28.280Z,97616.41
2023-10-29T11:03:33.306Z,97610.91
2023-10-29T11:04:37.953Z,97610.75
2023-10-29T11:05:41.426Z,97617.84
2023-10-29T11:06:45.444Z,97615.81
2023-10-29T11:07:47.694Z,97618.88
2023-10-29T11:08:50.788Z,97615.00
2023-10-29T11:09:53.918Z,97618.63
2023-10-29T11:10:58.378Z,97620.06
2023-10-29T11:12:00.617Z,97614.38
2023-10-29T11:13:21.736Z,97617.63
2023-10-29T11:14:25.186Z,97614.19
2023-10-29T11:15:29.332Z,97607.88
2023-10-29T11:16:31.959Z,97600.97
2023-10-29T11:17:52.252Z,97607.25
2023-10-29T11:18:54.217Z,97604.59
2023-10-29T11:19:59.048Z,97601.78
2023-10-29T11:21:01.424Z,97607.88
2023-10-29T11:22:20.501Z,97605.22
2023-10-29T11:23:27.316Z,97607.88
2023-10-29T11:24:30.115Z,97601.56
2023-10-29T11:25:32.047Z,97601.16
2023-10-29T11:26:36.212Z,97596.69
2023-10-29T11:27:38.674Z,97589.56
2023-10-29T11:28:44.284Z,97596.47
2023-10-29T11:29:47.245Z,97594.44
2023-10-29T11:31:14.896Z,97591.78
2023-10-29T11:32:27.221Z,97598.09
2023-10-29T11:33:29.249Z,97590.78
2023-10-29T11:34:35.674Z,97592.03
2023-10-29T11:35:38.196Z,97592.41
2023-10-29T11:36:42.929Z,97590.00
2023-10-29T11:37:45.182Z,97590.81
2023-10-29T11:38:48.056Z,97586.72
2023-10-29T11:39:50.053Z,97587.16
2023-10-29T11:40:52.856Z,97585.91
2023-10-29T11:41:55.592Z,97579.81
2023-10-29T11:42:59.380Z,97584.06
2023-10-29T11:44:23.148Z,97569.84
2023-10-29T11:45:39.340Z,97573.91
2023-10-29T11:47:08.009Z,97571.66
2023-10-29T11:48:17.786Z,97569.63
2023-10-29T11:49:21.484Z,97585.91
2023-10-29T11:50:24.256Z,97572.03
2023-10-29T11:51:26.943Z,97569.78
2023-10-29T11:52:41.164Z,97573.66
2023-10-29T11:53:44.331Z,97579.34
2023-10-29T11:54:46.444Z,97572.41
2023-10-29T11:55:48.673Z,97577.06
2023-10-29T11:56:53.427Z,97573.81
2023-10-29T11:57:55.793Z,97567.31
2023-10-29T11:59:06.716Z,97569.72
2023-10-29T12:00:10.656Z,97568.69
2023-10-29T12:01:13.941Z,97565.88
2023-10-29T12:02:17.164Z,97569.91
2023-10-29T12:03:19.886Z,97567.06
2023-10-29T12:04:22.847Z,97558.94
2023-10-29T12:05:24.876Z,97557.91
2023-10-29T12:06:39.888Z,97556.69
2023-10-29T12:07:42.036Z,97564.41
2023-10-29T12:08:44.855Z,97555.44
2023-10-29T12:09:47.083Z,97558.88
2023-10-29T12:10:51.447Z,97562.56
2023-10-29T12:11:54.746Z,97555.22
2023-10-29T12:12:57.620Z,97556.03
2023-10-29T12:13:59.552Z,97554.81
2023-10-29T12:15:02.827Z,97551.94
2023-10-29T12:16:04.997Z,97551.75
2023-10-29T12:17:07.854Z,97556.00
2023-10-29T12:18:18.993Z,97552.56
2023-10-29T12:19:22.533Z,97560.50
2023-10-29T12:20:26.474Z,97559.47
2023-10-29T12:21:29.249Z,97554.16
2023-10-29T12:22:32.982Z,97558.84
2023-10-29T12:23:36.511Z,97549.44
2023-10-29T12:24:38.360Z,97551.88
2023-10-29T12:25:41.336Z,97556.72
2023-10-29T12:26:43.644Z,97548.59